Time;durP1;ratioP1;P1;durP2;ratioP2;P2;SDS_P1;SDS_P2;PMS_P1;PMS_P2;Temp;Humidity;BMP_temperature;BMP_pressure;BME280_temperature;BME280_humidity;BME280_pressure;Samples;Min_cycle;Max_cycle;Signal;HPM_P1;HPM_P2
2021/04/09 00:00:07;;;;;;;7.90;6.47;;;11.80;46.30;;;;;;4955140;28;20513;-54
2021/04/09 00:02:34;;;;;;;8.23;6.17;;;11.80;46.30;;;;;;4955209;28;20478;-53
2021/04/09 00:05:03;;;;;;;11.40;6.70;;;11.80;46.20;;;;;;4954448;28;20482;-52
2021/04/09 00:07:29;;;;;;;8.27;6.70;;;11.90;46.30;;;;;;4954794;28;20447;-52
2021/04/09 00:09:56;;;;;;;9.37;6.20;;;11.80;46.20;;;;;;4955093;28;20534;-52
2021/04/09 00:12:23;;;;;;;8.97;6.10;;;11.80;46.20;;;;;;4955074;28;20542;-51
2021/04/09 00:14:50;;;;;;;8.00;5.93;;;11.80;46.20;;;;;;4954334;28;20481;-54
2021/04/09 00:17:19;;;;;;;8.07;6.30;;;11.80;46.20;;;;;;4954214;28;20526;-52
2021/04/09 00:19:45;;;;;;;10.27;6.47;;;11.90;46.30;;;;;;4954704;28;20470;-55
2021/04/09 00:22:12;;;;;;;8.40;6.50;;;11.80;46.20;;;;;;4954671;28;20448;-55
2021/04/09 00:24:39;;;;;;;8.87;6.10;;;11.80;46.20;;;;;;4954350;28;20467;-53
2021/04/09 00:27:06;;;;;;;10.57;6.23;;;11.80;46.20;;;;;;4954617;28;20458;-51
2021/04/09 00:29:33;;;;;;;10.50;6.37;;;11.80;46.30;;;;;;4954468;28;20465;-50
2021/04/09 00:32:00;;;;;;;11.93;6.10;;;11.80;46.30;;;;;;4954384;28;20447;-54
2021/04/09 00:34:28;;;;;;;11.40;5.93;;;11.80;46.40;;;;;;4953870;28;20509;-53
2021/04/09 00:36:55;;;;;;;7.13;5.50;;;11.80;46.40;;;;;;4954528;28;20473;-52
2021/04/09 00:39:22;;;;;;;8.10;6.10;;;11.70;46.30;;;;;;4954485;28;20485;-54
2021/04/09 00:41:49;;;;;;;9.93;6.23;;;11.70;46.30;;;;;;4954815;28;20501;-53
2021/04/09 00:44:17;;;;;;;8.20;5.70;;;11.70;46.30;;;;;;4954123;28;20432;-54
2021/04/09 00:46:44;;;;;;;7.37;5.60;;;11.70;46.40;;;;;;4954053;28;20497;-52
2021/04/09 00:49:11;;;;;;;10.13;6.20;;;11.70;46.50;;;;;;4954218;28;20461;-53
2021/04/09 00:51:39;;;;;;;8.67;5.90;;;11.70;46.40;;;;;;4954306;28;20477;-49
2021/04/09 00:54:06;;;;;;;7.40;5.80;;;11.70;46.40;;;;;;4953924;28;20482;-54
2021/04/09 00:56:34;;;;;;;7.50;5.83;;;11.70;46.50;;;;;;4954171;28;20479;-55
2021/04/09 00:59:01;;;;;;;8.13;5.40;;;11.60;46.40;;;;;;4954147;28;20455;-55
2021/04/09 01:01:27;;;;;;;7.90;5.83;;;11.60;46.40;;;;;;4953870;28;20543;-52
2021/04/09 01:03:54;;;;;;;8.30;5.57;;;11.60;46.40;;;;;;4954094;28;20443;-53
2021/04/09 01:06:23;;;;;;;11.93;6.20;;;11.60;46.40;;;;;;4954037;28;20458;-55
2021/04/09 01:08:51;;;;;;;8.83;6.00;;;11.60;46.50;;;;;;4953953;28;20530;-54
2021/04/09 01:11:18;;;;;;;11.87;6.13;;;11.60;46.50;;;;;;4954097;28;20524;-55
2021/04/09 01:13:46;;;;;;;11.60;6.13;;;11.50;46.40;;;;;;4953786;28;20509;-52
2021/04/09 01:16:14;;;;;;;10.13;6.33;;;11.50;46.40;;;;;;4953802;28;20435;-53
2021/04/09 01:18:44;;;;;;;7.10;5.23;;;11.50;46.40;;;;;;4953292;28;20449;-55
2021/04/09 01:21:19;;;;;;;8.40;6.03;;;11.50;46.40;;;;;;4954159;28;20570;-54
2021/04/09 01:23:55;;;;;;;11.30;6.67;;;11.50;46.40;;;;;;4953757;28;20442;-55
2021/04/09 01:27:06;;;;;;;8.23;5.63;;;11.50;46.50;;;;;;4953430;28;20439;-52
2021/04/09 01:29:53;;;;;;;12.10;6.10;;;11.40;46.50;;;;;;5012306;28;20515;-55
2021/04/09 01:32:20;;;;;;;9.93;6.40;;;11.40;46.60;;;;;;4996741;28;20484;-55
2021/04/09 01:34:50;;;;;;;6.03;5.43;;;11.40;46.50;;;;;;4977789;28;20474;-53
2021/04/09 01:37:19;;;;;;;9.13;6.00;;;11.40;46.60;;;;;;4953732;28;20450;-54
2021/04/09 01:39:49;;;;;;;6.70;5.83;;;11.30;46.60;;;;;;4953310;28;20487;-55
2021/04/09 01:42:16;;;;;;;8.10;6.03;;;11.30;46.60;;;;;;4952992;28;20474;-55
2021/04/09 01:44:46;;;;;;;7.73;6.33;;;11.30;46.50;;;;;;4953173;28;20479;-53
2021/04/09 01:47:13;;;;;;;14.33;6.17;;;11.30;46.50;;;;;;4953717;28;20534;-55
2021/04/09 01:49:41;;;;;;;9.27;6.17;;;11.30;46.60;;;;;;4953365;28;20506;-55
2021/04/09 01:52:09;;;;;;;10.70;6.60;;;11.20;46.60;;;;;;4953224;28;20501;-52
2021/04/09 01:54:36;;;;;;;8.97;6.33;;;11.20;46.50;;;;;;4953195;28;20463;-54
2021/04/09 01:57:04;;;;;;;11.70;6.17;;;11.20;46.60;;;;;;4953274;28;20441;-55
2021/04/09 01:59:32;;;;;;;9.57;6.23;;;11.10;46.70;;;;;;4953581;28;20515;-53
2021/04/09 02:01:59;;;;;;;12.50;6.93;;;11.10;46.80;;;;;;4953186;28;20494;-54
2021/04/09 02:04:26;;;;;;;9.93;5.93;;;11.10;46.70;;;;;;4952940;28;20539;-53
2021/04/09 02:06:54;;;;;;;8.53;5.97;;;11.10;46.70;;;;;;4953211;28;20443;-52
2021/04/09 02:09:20;;;;;;;9.30;5.80;;;11.10;46.80;;;;;;4952996;28;20463;-52
2021/04/09 02:11:47;;;;;;;8.70;6.10;;;11.10;46.80;;;;;;4953608;28;20439;-50
2021/04/09 02:14:15;;;;;;;9.60;6.20;;;11.00;46.60;;;;;;4952898;28;20451;-51
2021/04/09 02:16:42;;;;;;;9.60;6.37;;;11.10;46.80;;;;;;4953132;28;20439;-52
2021/04/09 02:19:09;;;;;;;11.40;7.13;;;11.00;46.70;;;;;;4953024;28;20489;-49
2021/04/09 02:21:36;;;;;;;9.20;6.43;;;11.00;46.70;;;;;;4952907;28;20448;-54
2021/04/09 02:24:05;;;;;;;9.50;5.97;;;11.00;46.80;;;;;;4952673;28;20471;-53
2021/04/09 02:26:32;;;;;;;11.07;6.87;;;11.00;46.90;;;;;;4952827;28;20537;-53
2021/04/09 02:28:59;;;;;;;9.13;6.30;;;11.00;46.80;;;;;;4952977;28;20522;-49
2021/04/09 02:31:26;;;;;;;13.10;6.57;;;11.00;46.80;;;;;;4952984;28;20444;-51
2021/04/09 02:33:52;;;;;;;10.80;6.57;;;10.90;46.80;;;;;;4953147;28;20470;-53
2021/04/09 02:36:21;;;;;;;9.30;6.30;;;10.90;46.80;;;;;;4952590;28;20435;-53
2021/04/09 02:38:48;;;;;;;12.00;6.90;;;11.00;46.90;;;;;;4952579;28;20481;-52
2021/04/09 02:41:18;;;;;;;13.33;5.33;;;11.00;46.80;;;;;;4954921;28;20513;-52
2021/04/09 02:43:45;;;;;;;9.23;6.07;;;11.00;47.00;;;;;;4956483;28;20508;-52
2021/04/09 02:46:16;;;;;;;8.97;6.73;;;10.90;46.90;;;;;;4956320;28;20530;-54
2021/04/09 02:48:49;;;;;;;8.57;6.30;;;10.90;47.00;;;;;;4956328;28;20534;-52
2021/04/09 02:51:16;;;;;;;9.63;6.07;;;10.90;47.10;;;;;;4956201;28;20458;-54
2021/04/09 02:53:43;;;;;;;7.27;6.10;;;10.90;47.00;;;;;;4976278;28;20535;-53
2021/04/09 02:56:11;;;;;;;7.53;6.20;;;10.90;47.10;;;;;;4973714;28;20493;-55
2021/04/09 02:58:39;;;;;;;7.03;5.87;;;10.90;47.10;;;;;;4974948;28;20450;-54
2021/04/09 03:01:06;;;;;;;7.47;5.77;;;10.80;47.20;;;;;;4964194;28;20471;-51
2021/04/09 03:03:35;;;;;;;7.17;5.60;;;10.80;47.20;;;;;;4956003;28;20491;-52
2021/04/09 03:06:03;;;;;;;11.20;6.50;;;10.80;47.20;;;;;;4954955;28;20550;-53
2021/04/09 03:08:30;;;;;;;11.70;6.13;;;10.80;47.20;;;;;;4955987;28;20478;-50
2021/04/09 03:10:58;;;;;;;5.97;5.00;;;10.80;47.20;;;;;;4956007;28;20499;-53
2021/04/09 03:13:25;;;;;;;7.87;5.90;;;10.80;47.20;;;;;;4955505;28;20501;-52
2021/04/09 03:15:55;;;;;;;8.40;5.83;;;10.80;47.30;;;;;;4955604;28;20475;-51
2021/04/09 03:18:23;;;;;;;11.13;6.47;;;10.90;47.40;;;;;;4955710;28;20533;-52
2021/04/09 03:20:50;;;;;;;8.27;6.03;;;10.80;47.30;;;;;;4955300;28;20514;-54
2021/04/09 03:23:16;;;;;;;8.67;5.87;;;10.80;47.50;;;;;;4955331;28;20509;-52
2021/04/09 03:25:43;;;;;;;10.90;5.80;;;10.70;47.40;;;;;;4955373;28;20513;-51
2021/04/09 03:28:10;;;;;;;8.50;5.80;;;10.80;47.50;;;;;;4955838;28;20451;-54
2021/04/09 03:30:38;;;;;;;7.73;5.63;;;10.80;47.50;;;;;;4955900;28;20522;-53
2021/04/09 03:33:06;;;;;;;10.17;5.97;;;10.80;47.50;;;;;;4955309;28;20447;-51
2021/04/09 03:35:33;;;;;;;8.90;6.00;;;10.80;47.50;;;;;;4955845;28;20539;-53
2021/04/09 03:38:00;;;;;;;11.00;5.97;;;10.80;47.50;;;;;;4955646;28;20435;-54
2021/04/09 03:40:27;;;;;;;9.67;5.40;;;10.80;47.50;;;;;;4955105;28;20518;-53
2021/04/09 03:42:53;;;;;;;8.07;5.97;;;10.80;47.50;;;;;;4955276;28;20439;-50
2021/04/09 03:45:20;;;;;;;11.57;6.67;;;10.80;47.60;;;;;;4955265;28;20451;-49
2021/04/09 03:47:47;;;;;;;9.80;6.10;;;10.80;47.60;;;;;;4954477;28;20439;-50
2021/04/09 03:50:15;;;;;;;7.43;5.30;;;10.80;47.60;;;;;;4953398;28;20483;-53
2021/04/09 03:52:42;;;;;;;8.93;6.00;;;10.80;47.50;;;;;;4954458;28;20463;-49
2021/04/09 03:55:10;;;;;;;8.53;5.90;;;10.80;47.50;;;;;;4968246;28;20454;-50
2021/04/09 03:57:37;;;;;;;9.20;5.83;;;10.80;47.40;;;;;;4971623;28;20486;-53
2021/04/09 04:00:04;;;;;;;11.23;5.83;;;10.80;47.40;;;;;;4971640;28;20565;-53
2021/04/09 04:02:31;;;;;;;9.87;5.50;;;10.80;47.50;;;;;;4955345;28;20465;-51
2021/04/09 04:04:58;;;;;;;10.33;6.00;;;10.80;47.70;;;;;;4954837;28;20447;-56
2021/04/09 04:07:26;;;;;;;11.33;5.97;;;10.80;47.70;;;;;;4955303;28;20513;-52
2021/04/09 04:09:53;;;;;;;7.83;5.17;;;10.80;47.70;;;;;;4955056;28;20439;-55
2021/04/09 04:12:20;;;;;;;8.40;5.87;;;10.80;47.60;;;;;;4954865;28;20443;-51
2021/04/09 04:14:47;;;;;;;6.63;5.67;;;10.80;47.70;;;;;;4954409;28;20443;-52
2021/04/09 04:17:14;;;;;;;8.60;5.90;;;10.80;47.80;;;;;;4954620;28;20501;-53
2021/04/09 04:19:41;;;;;;;9.83;5.87;;;10.80;47.90;;;;;;4954707;28;20446;-50
2021/04/09 04:22:08;;;;;;;8.03;5.80;;;10.80;47.90;;;;;;4954861;28;20521;-52
2021/04/09 04:24:36;;;;;;;6.10;4.37;;;10.80;47.90;;;;;;4954380;28;20443;-54
2021/04/09 04:27:03;;;;;;;6.87;5.13;;;11.00;48.60;;;;;;4953412;28;20440;-54
2021/04/09 04:29:30;;;;;;;10.40;5.20;;;11.00;48.70;;;;;;4953154;28;20542;-52
2021/04/09 04:31:57;;;;;;;6.47;4.63;;;10.90;48.60;;;;;;4953367;28;20455;-51
2021/04/09 04:34:24;;;;;;;6.77;5.10;;;10.90;48.70;;;;;;4953432;28;20440;-55
2021/04/09 04:36:51;;;;;;;9.23;5.47;;;10.90;48.80;;;;;;4953344;28;20527;-54
2021/04/09 04:39:18;;;;;;;10.57;5.80;;;10.90;48.70;;;;;;4953399;28;20447;-53
2021/04/09 04:41:47;;;;;;;8.97;5.53;;;10.90;48.70;;;;;;4958538;28;20473;-51
2021/04/09 04:44:14;;;;;;;5.63;4.37;;;10.90;48.70;;;;;;4954252;28;20451;-53
2021/04/09 04:46:40;;;;;;;6.40;4.97;;;10.90;48.80;;;;;;4961777;28;20499;-54
2021/04/09 04:49:07;;;;;;;6.50;4.90;;;10.80;48.70;;;;;;4954227;28;20461;-53
2021/04/09 04:51:34;;;;;;;6.23;5.00;;;10.80;48.70;;;;;;4954498;28;20522;-53
2021/04/09 04:54:01;;;;;;;8.13;5.10;;;10.80;48.70;;;;;;4954395;28;20514;-53
2021/04/09 04:56:28;;;;;;;6.67;4.80;;;10.90;48.80;;;;;;4954009;28;20447;-53
2021/04/09 04:58:55;;;;;;;6.77;5.40;;;10.80;48.70;;;;;;4954124;28;20522;-54
2021/04/09 05:01:23;;;;;;;7.37;5.20;;;10.80;48.70;;;;;;4954066;28;20474;-52
2021/04/09 05:03:52;;;;;;;6.80;5.23;;;10.90;48.80;;;;;;4953840;28;20450;-53
2021/04/09 05:06:19;;;;;;;9.43;5.03;;;10.80;48.70;;;;;;4953902;28;20443;-54
2021/04/09 05:08:46;;;;;;;6.67;4.90;;;10.90;48.70;;;;;;4953832;28;20530;-50
2021/04/09 05:11:13;;;;;;;7.87;5.27;;;10.90;48.70;;;;;;4954229;28;20530;-52
2021/04/09 05:13:40;;;;;;;9.90;5.30;;;10.90;48.80;;;;;;4953958;28;20530;-50
2021/04/09 05:16:08;;;;;;;7.90;4.90;;;10.90;48.80;;;;;;4953579;28;20480;-53
2021/04/09 05:18:35;;;;;;;9.50;4.70;;;10.90;48.80;;;;;;4954045;28;20451;-54
2021/04/09 05:21:01;;;;;;;8.70;4.93;;;10.90;48.90;;;;;;4953575;28;20510;-52
2021/04/09 05:23:28;;;;;;;7.20;4.80;;;10.90;48.90;;;;;;4953620;28;20442;-55
2021/04/09 05:25:55;;;;;;;11.83;5.33;;;10.90;48.80;;;;;;4953896;28;20475;-53
2021/04/09 05:28:22;;;;;;;8.63;4.70;;;10.90;48.90;;;;;;4953843;28;20447;-51
2021/04/09 05:30:49;;;;;;;10.13;5.50;;;10.90;48.90;;;;;;4953739;28;20509;-52
2021/04/09 05:33:17;;;;;;;8.77;4.60;;;10.90;49.00;;;;;;4953382;28;20449;-52
2021/04/09 05:35:45;;;;;;;7.60;4.57;;;10.90;49.00;;;;;;4953301;28;20443;-52
2021/04/09 05:38:12;;;;;;;5.90;4.90;;;11.00;49.10;;;;;;4953403;28;20534;-55
2021/04/09 05:40:39;;;;;;;5.50;4.90;;;10.90;49.10;;;;;;4953869;28;20479;-50
2021/04/09 05:43:07;;;;;;;7.83;5.13;;;10.90;49.10;;;;;;4953673;28;20435;-52
2021/04/09 05:45:34;;;;;;;7.50;4.70;;;11.00;49.10;;;;;;4953561;28;20443;-54
2021/04/09 05:48:04;;;;;;;9.07;5.37;;;11.00;49.00;;;;;;4953610;28;20435;-53
2021/04/09 05:50:32;;;;;;;6.30;4.77;;;11.00;48.90;;;;;;4953153;28;20508;-52
2021/04/09 05:52:59;;;;;;;7.10;5.13;;;11.00;48.90;;;;;;4953827;28;20495;-55
2021/04/09 05:55:26;;;;;;;5.80;4.47;;;11.00;49.00;;;;;;4953614;28;20447;-54
2021/04/09 05:57:53;;;;;;;5.87;4.40;;;11.00;49.00;;;;;;4953632;28;20463;-54
2021/04/09 06:00:20;;;;;;;6.83;4.43;;;11.00;49.10;;;;;;4952486;28;20511;-51
2021/04/09 06:02:47;;;;;;;7.23;4.60;;;11.00;49.10;;;;;;4950935;28;20521;-53
2021/04/09 06:05:15;;;;;;;7.83;5.07;;;11.00;49.10;;;;;;4953063;28;20451;-53
2021/04/09 06:07:42;;;;;;;6.33;4.80;;;11.10;49.10;;;;;;4953435;28;20451;-53
2021/04/09 06:10:10;;;;;;;9.90;5.10;;;11.10;49.00;;;;;;4953430;28;20432;-51
2021/04/09 06:12:38;;;;;;;6.43;4.20;;;11.20;49.00;;;;;;4953395;28;20545;-55
2021/04/09 06:15:07;;;;;;;5.37;4.33;;;11.20;49.10;;;;;;4952285;28;20451;-53
2021/04/09 06:17:34;;;;;;;5.20;4.23;;;11.10;49.00;;;;;;4953070;28;20471;-55
2021/04/09 06:20:01;;;;;;;6.10;4.70;;;11.20;49.20;;;;;;4953046;28;20458;-54
2021/04/09 06:22:28;;;;;;;5.13;4.57;;;11.10;49.10;;;;;;4953267;28;20431;-55
2021/04/09 06:24:56;;;;;;;8.63;4.80;;;11.20;49.20;;;;;;4953042;28;20473;-55
2021/04/09 06:27:23;;;;;;;5.73;4.47;;;11.20;49.00;;;;;;4952760;28;20494;-55
2021/04/09 06:29:51;;;;;;;7.37;4.60;;;11.30;49.00;;;;;;4952920;28;20446;-54
2021/04/09 06:32:18;;;;;;;6.83;4.80;;;11.30;49.00;;;;;;4952841;28;20443;-54
2021/04/09 06:34:45;;;;;;;7.57;4.70;;;11.30;49.00;;;;;;4952834;28;20451;-53
2021/04/09 06:37:12;;;;;;;4.93;4.40;;;11.40;49.00;;;;;;4952796;28;20469;-52
2021/04/09 06:39:38;;;;;;;6.20;4.40;;;11.40;49.00;;;;;;4952735;28;20464;-54
2021/04/09 06:42:08;;;;;;;5.87;4.87;;;11.40;48.90;;;;;;4952605;28;20491;-53
2021/04/09 06:44:35;;;;;;;9.10;4.93;;;11.40;48.90;;;;;;4953130;28;20443;-54
2021/04/09 06:47:02;;;;;;;5.17;4.50;;;11.50;48.90;;;;;;4952892;28;20443;-51
2021/04/09 06:49:29;;;;;;;5.83;4.53;;;11.50;48.80;;;;;;4952639;28;20452;-51
2021/04/09 06:51:56;;;;;;;6.90;4.80;;;11.60;48.80;;;;;;4952839;28;20475;-54
2021/04/09 06:54:24;;;;;;;7.60;4.70;;;11.60;48.80;;;;;;4952637;28;20519;-54
2021/04/09 06:56:51;;;;;;;6.60;4.83;;;11.60;49.40;;;;;;4952928;28;20463;-53
2021/04/09 06:59:24;;;;;;;5.30;4.50;;;11.60;48.90;;;;;;4952452;28;20447;-55
2021/04/09 07:01:50;;;;;;;6.73;5.10;;;11.60;48.90;;;;;;4952616;28;20510;-52
2021/04/09 07:04:18;;;;;;;7.93;4.40;;;11.60;48.90;;;;;;4952762;28;20440;-55
2021/04/09 07:06:45;;;;;;;6.60;4.67;;;11.70;48.80;;;;;;4952974;28;20538;-54
2021/04/09 07:09:13;;;;;;;7.63;5.20;;;11.80;48.80;;;;;;4952701;28;20478;-55
2021/04/09 07:11:40;;;;;;;9.03;5.00;;;11.80;48.70;;;;;;4952724;28;20558;-51
2021/04/09 07:14:08;;;;;;;10.60;5.33;;;11.80;48.70;;;;;;4952572;28;20475;-53
2021/04/09 07:16:35;;;;;;;7.40;5.20;;;11.80;48.80;;;;;;4952320;28;20471;-50
2021/04/09 07:19:04;;;;;;;6.90;4.77;;;11.90;48.80;;;;;;4952426;28;20440;-52
2021/04/09 07:21:32;;;;;;;7.33;5.30;;;12.00;48.80;;;;;;4952218;28;20474;-53
2021/04/09 07:24:18;;;;;;;7.30;5.20;;;12.10;48.60;;;;;;4952336;28;20530;-52
2021/04/09 07:26:45;;;;;;;5.53;4.80;;;12.20;48.50;;;;;;4952678;28;20467;-54
2021/04/09 07:29:34;;;;;;;8.90;5.37;;;12.30;48.50;;;;;;4955481;28;20501;-50
2021/04/09 07:32:22;;;;;;;6.70;4.60;;;12.40;48.30;;;;;;4955396;28;20467;-54
2021/04/09 07:34:50;;;;;;;8.77;5.07;;;12.50;48.20;;;;;;4955625;28;20451;-55
2021/04/09 07:37:18;;;;;;;11.87;4.70;;;12.60;48.20;;;;;;4955656;28;20439;-54
2021/04/09 07:39:45;;;;;;;6.20;5.03;;;12.60;48.10;;;;;;4955564;28;20475;-54
2021/04/09 07:42:13;;;;;;;5.43;4.57;;;12.70;48.10;;;;;;4955078;28;20490;-54
2021/04/09 07:44:40;;;;;;;7.90;4.60;;;12.70;48.10;;;;;;4955273;28;20500;-52
2021/04/09 07:47:09;;;;;;;7.53;4.60;;;12.70;48.20;;;;;;4955301;28;20451;-52
2021/04/09 07:49:36;;;;;;;9.77;4.87;;;12.80;48.20;;;;;;4955139;28;20447;-54
2021/04/09 07:52:10;;;;;;;6.90;4.10;;;12.90;48.20;;;;;;4955107;28;20501;-53
2021/04/09 07:54:37;;;;;;;6.53;4.90;;;13.00;48.10;;;;;;4955048;28;20440;-52
2021/04/09 07:57:05;;;;;;;4.43;4.03;;;13.10;48.00;;;;;;4955127;28;20584;-52
2021/04/09 07:59:35;;;;;;;9.40;4.00;;;13.30;47.90;;;;;;4955055;28;20442;-55
2021/04/09 08:02:02;;;;;;;5.77;4.00;;;13.40;47.80;;;;;;4955488;28;20479;-52
2021/04/09 08:04:36;;;;;;;6.23;3.83;;;13.50;47.70;;;;;;4954857;28;20537;-50
2021/04/09 08:07:04;;;;;;;8.33;4.00;;;13.60;47.70;;;;;;4954976;28;20443;-53
2021/04/09 08:09:46;;;;;;;4.40;3.83;;;13.70;47.70;;;;;;4955070;28;20479;-55
2021/04/09 08:12:25;;;;;;;6.43;4.27;;;13.80;47.60;;;;;;4954706;28;20509;-56
2021/04/09 08:14:52;;;;;;;5.00;4.00;;;14.10;47.30;;;;;;4954798;28;20534;-54
2021/04/09 08:17:20;;;;;;;5.20;4.13;;;14.20;47.10;;;;;;4955005;28;20450;-56
2021/04/09 08:19:52;;;;;;;4.27;3.40;;;14.30;47.00;;;;;;4954763;28;20467;-52
2021/04/09 08:22:19;;;;;;;5.97;4.00;;;14.30;47.00;;;;;;4954779;28;20585;-56
2021/04/09 08:24:45;;;;;;;6.27;3.53;;;14.30;47.20;;;;;;4954440;28;20475;-53
2021/04/09 08:27:13;;;;;;;4.17;3.53;;;14.40;47.10;;;;;;4954781;28;20582;-55
2021/04/09 08:29:41;;;;;;;6.33;3.80;;;14.40;47.00;;;;;;4954767;28;20463;-53
2021/04/09 08:32:09;;;;;;;5.83;3.70;;;14.50;47.10;;;;;;4954811;28;20493;-55
2021/04/09 08:34:36;;;;;;;8.57;4.30;;;14.40;47.20;;;;;;4954420;28;20463;-53
2021/04/09 08:37:05;;;;;;;7.90;3.70;;;14.50;47.30;;;;;;4954534;28;20474;-54
2021/04/09 08:39:42;;;;;;;5.87;3.70;;;14.60;47.20;;;;;;4954188;28;20449;-54
2021/04/09 08:42:09;;;;;;;5.20;3.90;;;14.80;47.20;;;;;;4954236;28;20532;-54
2021/04/09 08:44:36;;;;;;;6.57;3.60;;;14.80;47.00;;;;;;4954100;28;20463;-55
2021/04/09 08:47:03;;;;;;;4.90;4.17;;;15.00;47.00;;;;;;4954475;28;20516;-54
2021/04/09 08:49:32;;;;;;;5.53;3.67;;;15.10;46.70;;;;;;4954073;28;20517;-52
2021/04/09 08:51:59;;;;;;;3.87;3.47;;;15.20;46.60;;;;;;4954315;28;20443;-53
2021/04/09 08:54:29;;;;;;;5.37;3.87;;;15.30;46.60;;;;;;4954006;28;20475;-53
2021/04/09 08:56:56;;;;;;;3.77;3.40;;;15.50;46.40;;;;;;4954196;28;20464;-54
2021/04/09 08:59:41;;;;;;;6.20;3.80;;;15.70;46.30;;;;;;4954343;28;20439;-55
2021/04/09 09:02:15;;;;;;;6.37;3.30;;;15.70;46.20;;;;;;4954457;28;20507;-55
2021/04/09 09:04:51;;;;;;;3.80;3.40;;;15.80;46.30;;;;;;4954000;28;20454;-54
2021/04/09 09:07:52;;;;;;;4.10;3.20;;;15.70;46.50;;;;;;4954509;28;20447;-52
2021/04/09 09:10:44;;;;;;;5.00;3.47;;;15.70;46.60;;;;;;4953985;28;20462;-53
2021/04/09 09:13:30;;;;;;;4.20;3.20;;;16.00;46.40;;;;;;4953855;28;20518;-53
2021/04/09 09:16:01;;;;;;;3.50;3.20;;;16.10;46.30;;;;;;4953757;28;20490;-53
2021/04/09 09:19:00;;;;;;;6.80;3.10;;;16.20;46.20;;;;;;4953989;28;20522;-55
2021/04/09 09:21:37;;;;;;;4.70;3.37;;;16.30;46.10;;;;;;4954116;28;20565;-52
2021/04/09 09:24:22;;;;;;;3.80;3.00;;;16.30;46.30;;;;;;4953992;28;20545;-55
2021/04/09 09:26:50;;;;;;;3.93;3.37;;;16.30;46.40;;;;;;4953815;28;20494;-55
2021/04/09 09:29:19;;;;;;;3.83;3.33;;;16.40;46.40;;;;;;4953805;28;20534;-55
2021/04/09 09:32:00;;;;;;;3.13;2.83;;;16.60;46.10;;;;;;4953868;28;20439;-56
2021/04/09 09:34:38;;;;;;;3.57;3.00;;;16.60;46.00;;;;;;4953795;28;20439;-56
2021/04/09 09:37:07;;;;;;;3.60;3.30;;;16.60;45.80;;;;;;4953744;29;20439;-56
2021/04/09 09:39:39;;;;;;;3.17;2.87;;;16.60;46.00;;;;;;4953307;28;20443;-53
2021/04/09 09:42:10;;;;;;;3.70;3.00;;;16.70;46.00;;;;;;4953462;28;20564;-56
2021/04/09 09:44:42;;;;;;;3.80;2.87;;;16.90;46.00;;;;;;4953653;28;20486;-54
2021/04/09 09:47:24;;;;;;;3.10;2.77;;;16.90;45.80;;;;;;4953380;28;20457;-54
2021/04/09 09:50:19;;;;;;;2.63;2.40;;;17.00;45.80;;;;;;4952479;28;20478;-53
2021/04/09 09:52:49;;;;;;;4.20;3.00;;;17.10;45.80;;;;;;4953307;28;20447;-55
2021/04/09 09:55:19;;;;;;;5.10;3.13;;;17.20;45.80;;;;;;4953340;28;20436;-55
2021/04/09 09:57:48;;;;;;;4.60;3.33;;;17.10;45.80;;;;;;4955962;28;20434;-55
2021/04/09 10:00:24;;;;;;;5.73;3.07;;;17.20;45.70;;;;;;4962950;28;20432;-53
2021/04/09 10:02:51;;;;;;;3.63;3.10;;;17.20;45.70;;;;;;4961386;28;20430;-55
2021/04/09 10:05:18;;;;;;;5.23;3.10;;;17.00;46.10;;;;;;4962383;28;20443;-53
2021/04/09 10:07:45;;;;;;;8.70;3.80;;;17.20;46.00;;;;;;4961785;28;20522;-54
2021/04/09 10:10:21;;;;;;;6.23;3.30;;;17.80;45.30;;;;;;4963595;28;20434;-52
2021/04/09 10:12:49;;;;;;;4.83;3.10;;;18.00;44.90;;;;;;4961077;28;20439;-56
2021/04/09 10:15:26;;;;;;;5.63;2.70;;;18.20;45.00;;;;;;4963012;28;20492;-55
2021/04/09 10:18:04;;;;;;;3.30;3.00;;;18.50;44.70;;;;;;4963142;28;20438;-55
2021/04/09 10:20:31;;;;;;;3.80;3.10;;;18.50;44.80;;;;;;4963561;28;20427;-54
2021/04/09 10:22:58;;;;;;;6.53;3.00;;;18.70;44.60;;;;;;4962743;28;20421;-51
2021/04/09 10:25:28;;;;;;;4.53;2.77;;;18.80;44.50;;;;;;4963105;28;20498;-54
2021/04/09 10:27:56;;;;;;;3.83;2.53;;;18.80;44.50;;;;;;4972485;28;20477;-53
2021/04/09 10:30:26;;;;;;;4.13;2.67;;;18.70;45.10;;;;;;4972556;28;20446;-55
2021/04/09 10:32:53;;;;;;;6.40;2.83;;;18.50;45.30;;;;;;4972184;28;20572;-54
2021/04/09 10:35:23;;;;;;;2.67;2.47;;;18.40;45.60;;;;;;4971896;28;20508;-54
2021/04/09 10:37:50;;;;;;;4.30;2.80;;;18.20;46.00;;;;;;4972095;28;20517;-51
2021/04/09 10:40:17;;;;;;;3.60;2.87;;;17.80;46.70;;;;;;4972442;28;20546;-55
2021/04/09 10:42:59;;;;;;;3.40;3.10;;;17.60;47.10;;;;;;4971840;28;20501;-53
2021/04/09 10:45:26;;;;;;;4.17;3.30;;;17.40;47.40;;;;;;4972098;28;20501;-54
2021/04/09 10:47:54;;;;;;;3.33;2.90;;;17.20;47.80;;;;;;4972366;28;20421;-50
2021/04/09 10:50:21;;;;;;;6.17;3.23;;;17.10;47.80;;;;;;4971940;28;20485;-54
2021/04/09 10:52:48;;;;;;;3.50;3.20;;;17.10;47.90;;;;;;4972060;28;20509;-52
2021/04/09 10:55:15;;;;;;;5.67;3.23;;;17.00;48.00;;;;;;4972350;28;20488;-52
2021/04/09 10:57:41;;;;;;;3.80;3.50;;;16.90;48.10;;;;;;4972099;28;20450;-53
2021/04/09 11:00:10;;;;;;;3.40;2.83;;;16.90;48.30;;;;;;4971742;28;20468;-53
2021/04/09 11:02:38;;;;;;;3.50;3.20;;;16.80;48.30;;;;;;4974526;28;20482;-54
2021/04/09 11:05:06;;;;;;;3.07;2.87;;;16.70;48.30;;;;;;4975052;28;20452;-55
2021/04/09 11:07:43;;;;;;;4.53;3.13;;;16.70;48.30;;;;;;4975351;28;20569;-53
2021/04/09 11:10:30;;;;;;;3.37;2.80;;;16.70;48.20;;;;;;4978633;28;20451;-51
2021/04/09 11:12:57;;;;;;;5.37;2.97;;;16.70;48.30;;;;;;4975095;28;20458;-54
2021/04/09 11:15:24;;;;;;;2.90;2.50;;;16.70;48.30;;;;;;4966740;28;20438;-53
2021/04/09 11:17:52;;;;;;;3.20;2.90;;;16.80;48.20;;;;;;4958028;28;20537;-53
2021/04/09 11:20:20;;;;;;;5.50;3.07;;;16.90;48.10;;;;;;4955840;28;20443;-52
2021/04/09 11:22:58;;;;;;;3.83;2.90;;;17.10;47.60;;;;;;4955725;28;20483;-52
2021/04/09 11:25:30;;;;;;;4.20;2.80;;;17.10;47.70;;;;;;4955416;28;20447;-53
2021/04/09 11:27:57;;;;;;;4.70;3.20;;;17.10;47.60;;;;;;4955441;28;20467;-53
2021/04/09 11:30:28;;;;;;;2.60;2.40;;;18.80;46.80;;;;;;4955512;28;20451;-53
2021/04/09 11:32:55;;;;;;;2.37;2.20;;;22.30;40.90;;;;;;4955689;28;20479;-52
2021/04/09 11:35:22;;;;;;;2.03;1.73;;;25.10;36.50;;;;;;4955325;28;20485;-51
2021/04/09 11:37:50;;;;;;;2.23;2.03;;;24.10;35.50;;;;;;4955417;28;20528;-54
2021/04/09 11:40:32;;;;;;;4.23;2.50;;;21.50;39.70;;;;;;4955277;28;20471;-54
2021/04/09 11:42:59;;;;;;;2.47;2.20;;;19.90;42.50;;;;;;4955316;28;20530;-52
2021/04/09 11:45:37;;;;;;;5.70;2.20;;;19.00;44.60;;;;;;4954977;28;20425;-53
2021/04/09 11:48:20;;;;;;;2.43;2.23;;;18.60;45.20;;;;;;4955338;28;20485;-53
2021/04/09 11:50:47;;;;;;;2.53;2.33;;;18.40;45.90;;;;;;4955340;28;20463;-53
2021/04/09 11:53:14;;;;;;;2.30;2.10;;;18.80;45.70;;;;;;4955143;28;20426;-54
2021/04/09 11:55:41;;;;;;;2.80;2.60;;;18.90;44.80;;;;;;4954899;28;20425;-52
2021/04/09 11:58:17;;;;;;;5.80;2.40;;;18.40;45.60;;;;;;4955020;28;20439;-53
2021/04/09 12:00:54;;;;;;;3.47;2.70;;;18.10;46.50;;;;;;4954767;28;20462;-52
2021/04/09 12:03:20;;;;;;;5.43;2.43;;;17.80;46.80;;;;;;4955033;28;20534;-54
2021/04/09 12:05:47;;;;;;;3.27;2.47;;;17.60;47.20;;;;;;4954500;28;20444;-55
2021/04/09 12:08:14;;;;;;;3.33;2.60;;;17.40;47.60;;;;;;4955002;28;20451;-55
2021/04/09 12:10:41;;;;;;;3.20;2.70;;;17.20;47.90;;;;;;4954869;28;20534;-51
2021/04/09 12:13:08;;;;;;;6.93;2.53;;;17.10;48.10;;;;;;4954286;28;20440;-56
2021/04/09 12:15:35;;;;;;;3.57;2.60;;;16.90;48.30;;;;;;4954581;28;20487;-52
2021/04/09 12:18:02;;;;;;;3.57;2.60;;;16.90;48.50;;;;;;4954731;28;20443;-53
2021/04/09 12:20:29;;;;;;;3.83;2.70;;;16.80;48.60;;;;;;4954826;28;20451;-56
2021/04/09 12:22:56;;;;;;;4.47;2.50;;;16.80;48.60;;;;;;4954580;28;20471;-56
2021/04/09 12:25:23;;;;;;;2.87;2.67;;;16.80;48.60;;;;;;4954394;28;20485;-55
2021/04/09 12:27:50;;;;;;;9.30;2.63;;;16.80;48.70;;;;;;4954560;28;20439;-51
2021/04/09 12:30:18;;;;;;;4.93;2.77;;;16.70;48.70;;;;;;4954562;28;20473;-55
2021/04/09 12:32:45;;;;;;;6.77;3.03;;;16.80;48.70;;;;;;4954647;28;20450;-56
2021/04/09 12:35:13;;;;;;;5.60;2.60;;;16.70;48.70;;;;;;4954358;28;20497;-52
2021/04/09 12:37:40;;;;;;;3.57;2.40;;;16.60;48.70;;;;;;4954432;28;20490;-55
2021/04/09 12:40:08;;;;;;;5.70;2.83;;;16.50;48.80;;;;;;4954459;28;20463;-54
2021/04/09 12:42:35;;;;;;;3.17;2.87;;;16.50;48.90;;;;;;4954100;28;20518;-54
2021/04/09 12:45:02;;;;;;;5.70;2.63;;;16.50;49.00;;;;;;4953896;28;20451;-52
2021/04/09 12:47:29;;;;;;;3.90;3.17;;;16.50;49.10;;;;;;4954286;28;20508;-52
2021/04/09 12:49:55;;;;;;;3.90;3.40;;;16.50;49.10;;;;;;4953962;28;20454;-55
2021/04/09 12:52:23;;;;;;;2.77;2.53;;;16.50;49.00;;;;;;4954279;28;20478;-54
2021/04/09 12:54:50;;;;;;;3.10;2.90;;;16.40;49.00;;;;;;4953997;28;20516;-54